Time;durP1;ratioP1;P1;durP2;ratioP2;P2;SDS_P1;SDS_P2;PMS_P1;PMS_P2;Temp;Humidity;BMP_temperature;BMP_pressure;BME280_temperature;BME280_humidity;BME280_pressure;Samples;Min_cycle;Max_cycle;Signal;HPM_P1;HPM_P2
2021/03/22 00:00:00;;;;;;;27.02;5.93;;;;;;;;;;5112543;27;20046;-49
2021/03/22 00:02:25;;;;;;;21.38;6.05;;;;;;;;;;5112286;27;20031;-51
2021/03/22 00:04:51;;;;;;;29.75;6.60;;;;;;;;;;5117236;27;20031;-51
2021/03/22 00:07:16;;;;;;;29.67;6.35;;;;;;;;;;5112933;27;20027;-51
2021/03/22 00:09:42;;;;;;;25.50;6.57;;;;;;;;;;5116536;27;20023;-52
2021/03/22 00:12:08;;;;;;;20.38;5.70;;;;;;;;;;5112700;27;20054;-52
2021/03/22 00:14:33;;;;;;;30.98;6.78;;;;;;;;;;5112405;27;20049;-51
2021/03/22 00:16:59;;;;;;;26.55;6.65;;;;;;;;;;5112479;27;20107;-51
2021/03/22 00:19:27;;;;;;;20.10;5.65;;;;;;;;;;5111806;27;20053;-48
2021/03/22 00:21:53;;;;;;;16.75;5.25;;;;;;;;;;5112264;27;20042;-52
2021/03/22 00:24:18;;;;;;;21.52;5.47;;;;;;;;;;5112366;27;20023;-52
2021/03/22 00:26:43;;;;;;;19.15;5.68;;;;;;;;;;5111804;27;20360;-54
2021/03/22 00:29:09;;;;;;;22.75;6.10;;;;;;;;;;5112614;27;20035;-50
2021/03/22 00:31:34;;;;;;;24.45;6.05;;;;;;;;;;5112355;27;20020;-51
2021/03/22 00:33:59;;;;;;;27.67;6.20;;;;;;;;;;5112223;27;20433;-50
2021/03/22 00:36:25;;;;;;;18.77;5.70;;;;;;;;;;5110851;27;20031;-50
2021/03/22 00:38:50;;;;;;;18.92;5.97;;;;;;;;;;5112353;28;20066;-52
2021/03/22 00:41:16;;;;;;;21.58;6.05;;;;;;;;;;5111786;27;20115;-50
2021/03/22 00:43:41;;;;;;;30.85;6.72;;;;;;;;;;5108017;28;20115;-53
2021/03/22 00:46:07;;;;;;;19.77;5.93;;;;;;;;;;5095564;28;20070;-52
2021/03/22 00:48:34;;;;;;;23.00;6.00;;;;;;;;;;5111921;27;20039;-54
2021/03/22 00:51:03;;;;;;;23.90;5.38;;;;;;;;;;5112691;27;20092;-48
2021/03/22 00:53:29;;;;;;;29.50;6.40;;;;;;;;;;5109487;27;20035;-51
2021/03/22 00:55:54;;;;;;;19.27;4.60;;;;;;;;;;5111997;27;20046;-50
2021/03/22 00:58:20;;;;;;;27.45;6.43;;;;;;;;;;5111164;27;20514;-53
2021/03/22 01:00:52;;;;;;;16.27;4.88;;;;;;;;;;5096673;28;20034;-52
2021/03/22 01:03:36;;;;;;;21.05;5.35;;;;;;;;;;5097541;27;20092;-52
2021/03/22 01:06:04;;;;;;;20.80;4.53;;;;;;;;;;5112302;27;20027;-54
2021/03/22 01:08:32;;;;;;;18.65;4.53;;;;;;;;;;5109432;27;20130;-52
2021/03/22 01:11:00;;;;;;;24.88;5.30;;;;;;;;;;5121749;27;20519;-48
2021/03/22 01:13:29;;;;;;;18.33;5.45;;;;;;;;;;5122657;27;20027;-50
2021/03/22 01:15:56;;;;;;;23.50;5.07;;;;;;;;;;5111354;28;20031;-52
2021/03/22 01:18:24;;;;;;;29.80;6.25;;;;;;;;;;5108541;27;20092;-52
2021/03/22 01:20:57;;;;;;;16.23;4.38;;;;;;;;;;5121588;27;20027;-49
2021/03/22 01:23:23;;;;;;;15.70;4.43;;;;;;;;;;5115028;27;20043;-49
2021/03/22 01:25:49;;;;;;;24.50;5.13;;;;;;;;;;5098689;27;20099;-54
2021/03/22 01:28:16;;;;;;;20.08;5.07;;;;;;;;;;5112509;27;20031;-50
2021/03/22 01:30:50;;;;;;;25.65;4.97;;;;;;;;;;5108685;27;20023;-52
2021/03/22 01:33:26;;;;;;;24.27;5.35;;;;;;;;;;5110574;27;20373;-54
2021/03/22 01:35:53;;;;;;;18.30;4.95;;;;;;;;;;5108987;28;20059;-51
2021/03/22 01:38:19;;;;;;;22.38;5.22;;;;;;;;;;5110807;27;20317;-54
2021/03/22 01:41:12;;;;;;;22.20;5.30;;;;;;;;;;5111607;27;20032;-51
2021/03/22 01:43:46;;;;;;;16.30;4.55;;;;;;;;;;5109706;27;20039;-50
2021/03/22 01:46:12;;;;;;;18.90;4.53;;;;;;;;;;5111069;27;20102;-53
2021/03/22 01:48:38;;;;;;;17.90;5.15;;;;;;;;;;5112241;27;20107;-50
2021/03/22 01:51:04;;;;;;;18.88;3.42;;;;;;;;;;5111650;27;20044;-48
2021/03/22 01:53:30;;;;;;;30.00;4.78;;;;;;;;;;5110766;27;20088;-48
2021/03/22 01:56:25;;;;;;;17.52;4.88;;;;;;;;;;5110923;27;20028;-53
2021/03/22 01:58:51;;;;;;;22.30;5.47;;;;;;;;;;5093417;27;20047;-50
2021/03/22 02:01:19;;;;;;;16.42;4.00;;;;;;;;;;5113782;27;20114;-52
2021/03/22 02:03:45;;;;;;;17.05;4.28;;;;;;;;;;5111423;27;20118;-49
2021/03/22 02:06:10;;;;;;;20.52;4.40;;;;;;;;;;5110815;27;20123;-51
2021/03/22 02:08:39;;;;;;;21.92;4.38;;;;;;;;;;5110308;27;20027;-53
2021/03/22 02:11:26;;;;;;;25.92;4.63;;;;;;;;;;5110325;27;20096;-50
2021/03/22 02:14:01;;;;;;;18.25;4.20;;;;;;;;;;5107945;27;20492;-53
2021/03/22 02:16:35;;;;;;;21.60;4.05;;;;;;;;;;5109615;27;20034;-52
2021/03/22 02:19:11;;;;;;;18.58;4.05;;;;;;;;;;5113967;27;20023;-53
2021/03/22 02:22:02;;;;;;;12.20;3.90;;;;;;;;;;5094319;28;20103;-54
2021/03/22 02:25:05;;;;;;;17.95;4.13;;;;;;;;;;5109869;27;20032;-51
2021/03/22 02:27:55;;;;;;;14.70;3.92;;;;;;;;;;5113367;27;20097;-53
2021/03/22 02:30:39;;;;;;;14.20;3.90;;;;;;;;;;5099560;28;20086;-54
2021/03/22 02:33:45;;;;;;;14.70;3.78;;;;;;;;;;5111215;27;20023;-53
2021/03/22 02:36:15;;;;;;;13.27;4.07;;;;;;;;;;5087406;27;20043;-54
2021/03/22 02:38:48;;;;;;;11.05;3.28;;;;;;;;;;5121920;27;20031;-53
2021/03/22 02:41:22;;;;;;;19.15;4.55;;;;;;;;;;5098610;27;20411;-51
2021/03/22 02:44:08;;;;;;;22.58;4.05;;;;;;;;;;5111875;27;20046;-52
2021/03/22 02:46:34;;;;;;;15.15;4.40;;;;;;;;;;5109810;27;20084;-51
2021/03/22 02:49:06;;;;;;;13.32;3.35;;;;;;;;;;5107734;28;20085;-54
2021/03/22 02:51:43;;;;;;;19.00;3.85;;;;;;;;;;5110155;28;20027;-54
2021/03/22 02:54:35;;;;;;;18.58;4.47;;;;;;;;;;5109021;28;20825;-53
2021/03/22 02:57:10;;;;;;;;;;;;;;;;;;5109420;28;20031;-51
2021/03/22 02:59:59;;;;;;;14.77;3.50;;;;;;;;;;5108885;28;19918;-50
2021/03/22 03:02:28;;;;;;;21.88;3.97;;;;;;;;;;5108842;28;20048;-50
2021/03/22 03:04:54;;;;;;;12.98;4.07;;;;;;;;;;5110239;28;20549;-51
2021/03/22 03:07:25;;;;;;;13.70;3.05;;;;;;;;;;5107600;28;20051;-54
2021/03/22 03:09:51;;;;;;;12.07;2.78;;;;;;;;;;5110709;28;20055;-52
2021/03/22 03:12:22;;;;;;;19.85;3.55;;;;;;;;;;5112678;28;20562;-52
2021/03/22 03:14:50;;;;;;;16.42;3.40;;;;;;;;;;5095244;28;20028;-54
2021/03/22 03:17:17;;;;;;;17.13;4.47;;;;;;;;;;5095982;28;20031;-50
2021/03/22 03:19:42;;;;;;;15.88;3.50;;;;;;;;;;5106417;28;20020;-52
2021/03/22 03:22:09;;;;;;;17.50;3.22;;;;;;;;;;5096667;28;20042;-51
2021/03/22 03:24:38;;;;;;;18.83;3.97;;;;;;;;;;5109097;28;20031;-53
2021/03/22 03:27:04;;;;;;;26.80;4.05;;;;;;;;;;5111414;28;20023;-50
2021/03/22 03:29:30;;;;;;;16.63;3.35;;;;;;;;;;5111065;28;20041;-53
2021/03/22 03:31:55;;;;;;;14.23;4.25;;;;;;;;;;5112304;27;20039;-52
2021/03/22 03:34:21;;;;;;;13.85;3.63;;;;;;;;;;5105881;27;20051;-50
2021/03/22 03:36:47;;;;;;;12.50;3.35;;;;;;;;;;5113825;27;20084;-53
2021/03/22 03:39:12;;;;;;;11.40;3.03;;;;;;;;;;5113334;27;20027;-53
2021/03/22 03:41:39;;;;;;;16.80;4.20;;;;;;;;;;5107652;27;20027;-53
2021/03/22 03:44:10;;;;;;;15.70;3.83;;;;;;;;;;5114528;27;20034;-54
2021/03/22 03:46:37;;;;;;;22.13;4.05;;;;;;;;;;5113800;27;20038;-52
2021/03/22 03:49:02;;;;;;;13.75;3.85;;;;;;;;;;5117316;27;20440;-51
2021/03/22 03:51:28;;;;;;;19.27;5.28;;;;;;;;;;5107896;27;20023;-52
2021/03/22 03:53:53;;;;;;;13.95;3.75;;;;;;;;;;5113465;27;20526;-54
2021/03/22 03:56:19;;;;;;;18.92;3.78;;;;;;;;;;5114981;27;20027;-53
2021/03/22 03:58:44;;;;;;;17.48;4.28;;;;;;;;;;5113558;27;20099;-51
2021/03/22 04:01:10;;;;;;;13.35;3.65;;;;;;;;;;5113597;27;20028;-49
2021/03/22 04:03:38;;;;;;;16.90;3.47;;;;;;;;;;5114214;27;20410;-50
2021/03/22 04:06:09;;;;;;;14.73;3.95;;;;;;;;;;5098705;27;20106;-53
2021/03/22 04:08:39;;;;;;;25.17;4.45;;;;;;;;;;5112696;27;20578;-53
2021/03/22 04:11:07;;;;;;;16.42;4.05;;;;;;;;;;5112193;27;20051;-50
2021/03/22 04:13:33;;;;;;;9.25;2.80;;;;;;;;;;5112735;27;20043;-49
2021/03/22 04:15:59;;;;;;;16.80;4.05;;;;;;;;;;5112675;27;20035;-49
2021/03/22 04:18:24;;;;;;;14.48;4.20;;;;;;;;;;5112605;27;20031;-49
2021/03/22 04:20:50;;;;;;;18.98;4.18;;;;;;;;;;5098144;27;20480;-48
2021/03/22 04:23:16;;;;;;;14.30;3.78;;;;;;;;;;5112338;27;20123;-53
2021/03/22 04:25:41;;;;;;;21.73;4.32;;;;;;;;;;5112628;27;20038;-53
2021/03/22 04:28:07;;;;;;;13.18;4.20;;;;;;;;;;5112043;27;20028;-52
2021/03/22 04:30:32;;;;;;;11.32;3.95;;;;;;;;;;5110659;28;20126;-51
2021/03/22 04:32:58;;;;;;;10.73;3.65;;;;;;;;;;5112427;28;20028;-54
2021/03/22 04:35:25;;;;;;;19.02;3.97;;;;;;;;;;5111304;28;20050;-50
2021/03/22 04:37:51;;;;;;;19.63;3.33;;;;;;;;;;5110197;27;20516;-49
2021/03/22 04:40:23;;;;;;;15.50;3.83;;;;;;;;;;5111833;27;20130;-55
2021/03/22 04:42:48;;;;;;;;;;;;;;;;;;5104770;27;20032;-50
2021/03/22 04:45:15;;;;;;;24.02;4.60;;;;;;;;;;5112864;27;19914;-50
2021/03/22 04:47:40;;;;;;;18.40;4.28;;;;;;;;;;5110708;27;20511;-51
2021/03/22 04:50:07;;;;;;;17.35;4.05;;;;;;;;;;5097897;28;20043;-53
2021/03/22 04:52:32;;;;;;;21.63;4.60;;;;;;;;;;5103696;28;20159;-51
2021/03/22 04:54:57;;;;;;;17.13;3.63;;;;;;;;;;5111510;27;20364;-53
2021/03/22 04:57:30;;;;;;;21.02;3.85;;;;;;;;;;5111085;27;20042;-54
2021/03/22 04:59:56;;;;;;;16.10;4.15;;;;;;;;;;5113657;27;20084;-52
2021/03/22 05:02:21;;;;;;;15.75;3.30;;;;;;;;;;5111210;27;20028;-53
2021/03/22 05:04:48;;;;;;;15.10;3.83;;;;;;;;;;5111058;27;20412;-51
2021/03/22 05:07:15;;;;;;;13.65;3.55;;;;;;;;;;5111610;27;20457;-54
2021/03/22 05:09:41;;;;;;;23.45;4.38;;;;;;;;;;5112824;27;20034;-50
2021/03/22 05:12:07;;;;;;;15.73;3.35;;;;;;;;;;5111547;27;20411;-52
2021/03/22 05:14:33;;;;;;;10.18;2.88;;;;;;;;;;5111470;27;20388;-53
2021/03/22 05:16:59;;;;;;;16.95;3.80;;;;;;;;;;5111084;27;20384;-53
2021/03/22 05:19:24;;;;;;;15.23;4.28;;;;;;;;;;5110155;27;20027;-50
2021/03/22 05:21:50;;;;;;;13.98;3.78;;;;;;;;;;5114932;27;20666;-51
2021/03/22 05:24:16;;;;;;;12.02;3.22;;;;;;;;;;5117121;27;20038;-51
2021/03/22 05:26:41;;;;;;;12.15;3.75;;;;;;;;;;5112284;27;20059;-51
2021/03/22 05:29:07;;;;;;;16.42;4.13;;;;;;;;;;5096027;28;20032;-51
2021/03/22 05:31:33;;;;;;;11.25;3.10;;;;;;;;;;5110921;27;20426;-51
2021/03/22 05:33:59;;;;;;;23.27;4.03;;;;;;;;;;5111061;27;20082;-51
2021/03/22 05:36:24;;;;;;;16.42;3.67;;;;;;;;;;5089779;27;20036;-53
2021/03/22 05:38:49;;;;;;;13.23;3.88;;;;;;;;;;5110041;27;20504;-52
2021/03/22 05:41:20;;;;;;;12.68;3.05;;;;;;;;;;5109779;27;20107;-50
2021/03/22 05:44:36;;;;;;;10.53;3.17;;;;;;;;;;5108189;27;20502;-50
2021/03/22 05:47:18;;;;;;;14.52;3.08;;;;;;;;;;5067750;27;20394;-51
2021/03/22 05:50:14;;;;;;;10.45;3.33;;;;;;;;;;5104693;28;20044;-53
2021/03/22 05:52:58;;;;;;;20.60;3.67;;;;;;;;;;5109633;27;20391;-50
2021/03/22 05:55:37;;;;;;;12.13;3.60;;;;;;;;;;5109984;28;20035;-50
2021/03/22 05:58:08;;;;;;;17.38;3.42;;;;;;;;;;5111025;27;20023;-49
2021/03/22 06:00:37;;;;;;;14.70;4.18;;;;;;;;;;5109009;27;20471;-52
2021/03/22 06:03:14;;;;;;;16.67;3.33;;;;;;;;;;5109617;27;20086;-52
2021/03/22 06:06:05;;;;;;;19.15;2.95;;;;;;;;;;5086610;28;20051;-53
2021/03/22 06:08:33;;;;;;;;;;;;;;;;;;5103627;27;20039;-49
2021/03/22 06:11:04;;;;;;;18.35;3.67;;;;;;;;;;5107730;27;19911;-53
2021/03/22 06:13:38;;;;;;;14.32;3.53;;;;;;;;;;5108300;27;20027;-49
2021/03/22 06:16:25;;;;;;;12.18;3.20;;;;;;;;;;5110297;27;20096;-51
2021/03/22 06:19:00;;;;;;;15.38;3.08;;;;;;;;;;5107750;28;20039;-51
2021/03/22 06:21:27;;;;;;;13.20;3.42;;;;;;;;;;5109485;28;20035;-53
2021/03/22 06:23:52;;;;;;;13.13;3.47;;;;;;;;;;5109215;28;20039;-52
2021/03/22 06:26:45;;;;;;;15.20;3.67;;;;;;;;;;5110113;27;20353;-52
2021/03/22 06:29:26;;;;;;;14.27;3.55;;;;;;;;;;5093875;28;20046;-49
2021/03/22 06:31:53;;;;;;;;;;;;;;;;;;5110187;27;20031;-51
2021/03/22 06:34:35;;;;;;;13.38;2.90;;;;;;;;;;5117601;27;19912;-52
2021/03/22 06:37:00;;;;;;;16.30;4.03;;;;;;;;;;5111273;27;20368;-49
2021/03/22 06:39:25;;;;;;;13.55;4.03;;;;;;;;;;5111535;27;20024;-49
2021/03/22 06:41:53;;;;;;;17.65;5.40;;;;;;;;;;5109510;28;20051;-49
2021/03/22 06:44:36;;;;;;;13.70;4.45;;;;;;;;;;5109840;28;20039;-52
2021/03/22 06:47:13;;;;;;;10.38;2.80;;;;;;;;;;5107968;28;20085;-51
2021/03/22 06:49:45;;;;;;;14.10;4.10;;;;;;;;;;5106797;28;20041;-49
2021/03/22 06:52:13;;;;;;;17.58;4.82;;;;;;;;;;5108930;28;20039;-51
2021/03/22 06:54:45;;;;;;;20.38;3.85;;;;;;;;;;5109400;28;20729;-51
2021/03/22 06:57:21;;;;;;;12.40;4.18;;;;;;;;;;5105718;28;20054;-51
2021/03/22 07:00:18;;;;;;;12.65;4.03;;;;;;;;;;5107042;28;20044;-52
2021/03/22 07:02:52;;;;;;;11.20;3.97;;;;;;;;;;5104275;28;20050;-52
2021/03/22 07:05:27;;;;;;;13.63;3.85;;;;;;;;;;5107683;28;20028;-53
2021/03/22 07:08:07;;;;;;;17.73;4.18;;;;;;;;;;5114285;27;20456;-54
2021/03/22 07:10:44;;;;;;;9.07;4.10;;;;;;;;;;5115872;27;20519;-49
2021/03/22 07:13:17;;;;;;;11.70;3.95;;;;;;;;;;5110734;27;20114;-51
2021/03/22 07:15:45;;;;;;;13.40;4.20;;;;;;;;;;5109223;27;20030;-52
2021/03/22 07:18:33;;;;;;;12.25;4.18;;;;;;;;;;5109618;27;20034;-51
2021/03/22 07:21:07;;;;;;;11.45;3.65;;;;;;;;;;5106581;27;20097;-53
2021/03/22 07:23:43;;;;;;;12.07;3.63;;;;;;;;;;5112026;27;20044;-52
2021/03/22 07:26:11;;;;;;;11.00;3.75;;;;;;;;;;5110496;27;20110;-54
2021/03/22 07:28:55;;;;;;;12.93;4.38;;;;;;;;;;5116508;27;20614;-49
2021/03/22 07:31:49;;;;;;;11.27;3.88;;;;;;;;;;5113976;27;20071;-52
2021/03/22 07:34:31;;;;;;;16.67;4.32;;;;;;;;;;5076644;27;20051;-54
2021/03/22 07:37:28;;;;;;;12.80;4.13;;;;;;;;;;5112073;27;20051;-53
2021/03/22 07:39:59;;;;;;;15.48;4.43;;;;;;;;;;5111865;27;20027;-52
2021/03/22 07:42:37;;;;;;;14.48;4.25;;;;;;;;;;5113448;27;20032;-53
2021/03/22 07:45:05;;;;;;;13.38;4.20;;;;;;;;;;5104543;27;20051;-54
2021/03/22 07:47:49;;;;;;;15.52;3.88;;;;;;;;;;5101229;27;20095;-51
2021/03/22 07:50:32;;;;;;;11.10;4.38;;;;;;;;;;5111947;27;20046;-53
2021/03/22 07:53:11;;;;;;;9.18;3.45;;;;;;;;;;5116076;27;20027;-52
2021/03/22 07:55:51;;;;;;;8.82;3.42;;;;;;;;;;5110234;27;20047;-52
2021/03/22 07:58:54;;;;;;;10.65;3.80;;;;;;;;;;5095975;27;20027;-52
2021/03/22 08:01:34;;;;;;;10.25;4.35;;;;;;;;;;5084401;28;20035;-49
2021/03/22 08:04:24;;;;;;;10.68;4.25;;;;;;;;;;5110104;28;20051;-52
2021/03/22 08:07:12;;;;;;;9.15;3.78;;;;;;;;;;5109851;28;20092;-53
2021/03/22 08:09:53;;;;;;;12.93;4.35;;;;;;;;;;5114818;28;20111;-49
2021/03/22 08:12:38;;;;;;;11.48;4.07;;;;;;;;;;5110542;28;20345;-51
2021/03/22 08:15:48;;;;;;;8.57;3.92;;;;;;;;;;5109438;28;20042;-52
2021/03/22 08:18:31;;;;;;;20.75;4.55;;;;;;;;;;5051032;28;20521;-49
2021/03/22 08:21:05;;;;;;;15.18;3.72;;;;;;;;;;5111834;28;20036;-53
2021/03/22 08:23:52;;;;;;;10.55;3.60;;;;;;;;;;5110474;28;20639;-52
2021/03/22 08:26:50;;;;;;;7.32;3.28;;;;;;;;;;5111297;28;20380;-51
2021/03/22 08:29:25;;;;;;;7.93;3.25;;;;;;;;;;5111583;28;20574;-51
2021/03/22 08:32:03;;;;;;;9.30;3.75;;;;;;;;;;5112069;28;20412;-52
2021/03/22 08:34:53;;;;;;;12.43;3.72;;;;;;;;;;5117894;28;20053;-51
2021/03/22 08:37:27;;;;;;;6.63;2.50;;;;;;;;;;5118749;28;20031;-54
2021/03/22 08:40:01;;;;;;;8.43;3.13;;;;;;;;;;5113599;28;20074;-52
2021/03/22 08:42:32;;;;;;;13.65;3.63;;;;;;;;;;5110593;28;20047;-52
2021/03/22 08:45:03;;;;;;;10.20;3.23;;;;;;;;;;5111387;28;20038;-53
2021/03/22 08:47:35;;;;;;;;;;;;;;;;;;5114293;28;20126;-50
2021/03/22 08:50:09;;;;;;;7.93;2.80;;;;;;;;;;5107855;28;19927;-52
2021/03/22 08:52:40;;;;;;;9.18;2.65;;;;;;;;;;5105875;28;20825;-54
2021/03/22 08:55:08;;;;;;;7.90;3.15;;;;;;;;;;5110942;28;20074;-50
2021/03/22 08:58:04;;;;;;;10.38;3.20;;;;;;;;;;5075890;28;587881;-54
2021/03/22 09:00:47;;;;;;;6.97;2.67;;;;;;;;;;5114650;27;20031;-51
2021/03/22 09:03:20;;;;;;;14.25;4.30;;;;;;;;;;5112592;27;20030;-51
2021/03/22 09:06:06;;;;;;;9.90;3.42;;;;;;;;;;5108327;28;20508;-51
2021/03/22 09:08:35;;;;;;;6.43;2.60;;;;;;;;;;5111115;27;20031;-54
2021/03/22 09:11:31;;;;;;;7.45;2.75;;;;;;;;;;5111714;27;20118;-54
2021/03/22 09:14:20;;;;;;;8.65;3.30;;;;;;;;;;5086705;27;20483;-54
2021/03/22 09:16:50;;;;;;;6.90;2.83;;;;;;;;;;5109548;27;20092;-52
2021/03/22 09:19:16;;;;;;;10.02;3.10;;;;;;;;;;5108722;27;20023;-53
2021/03/22 09:21:59;;;;;;;5.72;2.42;;;;;;;;;;5111393;27;20398;-51
2021/03/22 09:24:40;;;;;;;10.48;3.00;;;;;;;;;;5110057;27;20039;-52
2021/03/22 09:27:20;;;;;;;7.00;2.72;;;;;;;;;;5111302;27;20039;-51
2021/03/22 09:29:46;;;;;;;7.93;3.00;;;;;;;;;;5093488;28;20032;-54
2021/03/22 09:32:36;;;;;;;8.52;3.53;;;;;;;;;;5111151;27;20050;-53
2021/03/22 09:35:16;;;;;;;6.88;2.17;;;;;;;;;;5107931;27;20035;-53
2021/03/22 09:38:20;;;;;;;9.90;3.37;;;;;;;;;;5111254;28;20411;-54
2021/03/22 09:40:48;;;;;;;4.60;2.20;;;;;;;;;;5109754;27;20110;-55
2021/03/22 09:43:17;;;;;;;7.18;2.85;;;;;;;;;;5111853;27;20085;-53
2021/03/22 09:45:52;;;;;;;6.60;2.30;;;;;;;;;;5111233;27;20035;-50
2021/03/22 09:48:18;;;;;;;9.52;2.60;;;;;;;;;;5110324;27;20051;-52
2021/03/22 09:50:48;;;;;;;8.55;2.88;;;;;;;;;;5108721;27;20027;-49
2021/03/22 09:53:27;;;;;;;6.93;3.10;;;;;;;;;;5111598;27;20023;-52
2021/03/22 09:55:52;;;;;;;7.20;2.63;;;;;;;;;;5110952;27;20023;-50
2021/03/22 09:58:32;;;;;;;6.45;2.22;;;;;;;;;;5110649;27;20467;-55
2021/03/22 10:01:00;;;;;;;5.25;2.92;;;;;;;;;;5111555;27;20031;-52
2021/03/22 10:03:39;;;;;;;5.82;3.03;;;;;;;;;;5108492;28;20036;-53
2021/03/22 10:06:27;;;;;;;14.60;2.88;;;;;;;;;;5108036;27;20149;-51
2021/03/22 10:08:54;;;;;;;7.97;2.58;;;;;;;;;;5108279;27;20123;-51
2021/03/22 10:11:30;;;;;;;7.53;2.53;;;;;;;;;;5110943;27;20058;-54
2021/03/22 10:14:01;;;;;;;4.15;1.95;;;;;;;;;;5110459;27;20024;-50
2021/03/22 10:16:27;;;;;;;;;;;;;;;;;;5109464;28;20450;-52
2021/03/22 10:18:58;;;;;;;7.03;2.70;;;;;;;;;;5107831;28;19919;-53
2021/03/22 10:21:33;;;;;;;8.10;3.25;;;;;;;;;;5109631;28;20042;-51
2021/03/22 10:24:10;;;;;;;8.63;2.22;;;;;;;;;;5110480;27;20040;-53
2021/03/22 10:26:42;;;;;;;7.55;2.90;;;;;;;;;;5109011;27;20027;-48
2021/03/22 10:29:20;;;;;;;5.18;2.55;;;;;;;;;;5110885;27;20084;-53
2021/03/22 10:32:15;;;;;;;7.60;2.58;;;;;;;;;;5107115;27;20098;-51
2021/03/22 10:35:02;;;;;;;5.50;2.83;;;;;;;;;;5105090;27;20031;-52
2021/03/22 10:37:41;;;;;;;10.80;4.30;;;;;;;;;;5110095;28;20027;-51
2021/03/22 10:40:33;;;;;;;5.72;2.75;;;;;;;;;;5104234;28;20024;-54
2021/03/22 10:42:58;;;;;;;11.60;3.20;;;;;;;;;;5109557;28;20027;-50
2021/03/22 10:45:24;;;;;;;6.75;2.33;;;;;;;;;;5109785;28;20471;-51
2021/03/22 10:47:51;;;;;;;4.60;2.17;;;;;;;;;;5109041;28;20044;-50
2021/03/22 10:50:27;;;;;;;7.57;2.92;;;;;;;;;;5109732;28;20055;-53
2021/03/22 10:53:15;;;;;;;7.28;2.35;;;;;;;;;;5106828;28;20032;-51
2021/03/22 10:55:46;;;;;;;6.03;3.03;;;;;;;;;;5109651;28;20039;-48
2021/03/22 10:58:35;;;;;;;5.15;2.13;;;;;;;;;;5108666;28;20106;-51
2021/03/22 11:01:06;;;;;;;6.75;2.28;;;;;;;;;;5109037;28;20039;-53
2021/03/22 11:03:34;;;;;;;7.57;2.80;;;;;;;;;;5105314;28;20031;-52
2021/03/22 11:06:00;;;;;;;5.93;2.25;;;;;;;;;;5108901;28;20047;-50
2021/03/22 11:08:31;;;;;;;5.50;2.47;;;;;;;;;;5109588;28;20027;-50
2021/03/22 11:11:06;;;;;;;6.10;2.63;;;;;;;;;;5100677;28;20065;-51
2021/03/22 11:13:35;;;;;;;3.40;1.65;;;;;;;;;;5106297;28;20365;-51
2021/03/22 11:16:02;;;;;;;7.13;2.53;;;;;;;;;;5106405;28;20469;-51
2021/03/22 11:18:29;;;;;;;4.20;2.40;;;;;;;;;;5103207;28;20027;-52
2021/03/22 11:20:56;;;;;;;6.07;2.22;;;;;;;;;;5100474;28;20335;-51
2021/03/22 11:23:43;;;;;;;5.60;2.28;;;;;;;;;;5110356;28;20062;-50
2021/03/22 11:26:25;;;;;;;7.68;2.88;;;;;;;;;;5098724;28;20032;-50
2021/03/22 11:29:12;;;;;;;4.57;2.08;;;;;;;;;;5106214;28;20731;-52
2021/03/22 11:31:41;;;;;;;6.32;2.92;;;;;;;;;;5108769;28;20110;-53
2021/03/22 11:34:26;;;;;;;5.55;2.40;;;;;;;;;;5105166;28;20579;-54
2021/03/22 11:37:17;;;;;;;7.35;2.65;;;;;;;;;;5102655;28;20028;-51
2021/03/22 11:39:43;;;;;;;8.80;2.35;;;;;;;;;;5110133;28;20028;-53
2021/03/22 11:42:14;;;;;;;6.00;3.15;;;;;;;;;;5108752;28;20125;-55
2021/03/22 11:44:40;;;;;;;8.93;2.38;;;;;;;;;;5107817;28;20807;-53
2021/03/22 11:47:27;;;;;;;5.55;2.90;;;;;;;;;;5108379;28;20035;-52
2021/03/22 11:49:54;;;;;;;6.00;2.85;;;;;;;;;;5106641;28;20469;-50
2021/03/22 11:52:24;;;;;;;8.07;2.67;;;;;;;;;;5094947;27;20027;-54
2021/03/22 11:55:04;;;;;;;4.30;2.27;;;;;;;;;;5096511;28;20039;-55
2021/03/22 11:57:51;;;;;;;5.05;2.25;;;;;;;;;;5111044;27;20042;-54
2021/03/22 12:00:27;;;;;;;5.07;2.50;;;;;;;;;;5111290;27;20096;-54
2021/03/22 12:02:58;;;;;;;7.88;2.92;;;;;;;;;;5113107;27;20032;-52
2021/03/22 12:05:38;;;;;;;5.75;2.38;;;;;;;;;;5111089;27;20266;-50
2021/03/22 12:08:41;;;;;;;5.43;2.60;;;;;;;;;;5111794;27;20038;-55
2021/03/22 12:11:12;;;;;;;6.13;2.53;;;;;;;;;;5112430;27;20134;-50
2021/03/22 12:13:38;;;;;;;5.25;2.53;;;;;;;;;;5109939;27;20058;-54
2021/03/22 12:16:04;;;;;;;6.18;2.85;;;;;;;;;;5112357;27;20031;-53
2021/03/22 12:18:36;;;;;;;6.20;2.88;;;;;;;;;;5108707;27;20358;-51
2021/03/22 12:21:06;;;;;;;6.40;2.60;;;;;;;;;;5099433;28;20040;-53
2021/03/22 12:23:32;;;;;;;4.93;2.28;;;;;;;;;;5097580;27;20110;-52
2021/03/22 12:25:57;;;;;;;6.88;2.65;;;;;;;;;;5112717;28;20107;-53
2021/03/22 12:28:22;;;;;;;4.72;2.17;;;;;;;;;;5112796;27;20083;-52
2021/03/22 12:30:48;;;;;;;7.53;3.13;;;;;;;;;;5114827;27;20124;-52
2021/03/22 12:33:24;;;;;;;5.40;2.22;;;;;;;;;;5104490;27;20034;-54
2021/03/22 12:35:49;;;;;;;7.05;3.30;;;;;;;;;;5121576;27;20133;-51
2021/03/22 12:38:15;;;;;;;8.15;2.88;;;;;;;;;;5116095;27;20059;-54
2021/03/22 12:40:41;;;;;;;5.75;2.67;;;;;;;;;;5118590;27;20030;-52
2021/03/22 12:43:07;;;;;;;5.35;2.70;;;;;;;;;;5112073;27;20086;-52
2021/03/22 12:45:35;;;;;;;5.95;2.90;;;;;;;;;;5112594;27;20078;-55
2021/03/22 12:48:01;;;;;;;5.72;2.58;;;;;;;;;;5111953;28;20125;-49
2021/03/22 12:50:34;;;;;;;6.13;2.95;;;;;;;;;;5112201;27;20039;-49
2021/03/22 12:53:00;;;;;;;6.20;3.05;;;;;;;;;;5109554;27;20039;-53
2021/03/22 12:55:28;;;;;;;7.13;3.25;;;;;;;;;;5108386;27;20031;-52
2021/03/22 12:57:56;;;;;;;6.63;3.58;;;;;;;;;;5112607;27;20483;-53
2021/03/22 13:00:24;;;;;;;5.32;3.10;;;;;;;;;;5112298;27;20088;-55
2021/03/22 13:02:50;;;;;;;5.65;2.90;;;;;;;;;;5100006;28;20040;-52
2021/03/22 13:05:22;;;;;;;4.38;2.45;;;;;;;;;;5112169;27;20039;-55
2021/03/22 13:07:48;;;;;;;5.47;2.80;;;;;;;;;;5112321;27;20051;-54
2021/03/22 13:10:18;;;;;;;8.85;2.58;;;;;;;;;;5112391;27;20031;-55
2021/03/22 13:12:44;;;;;;;8.88;2.47;;;;;;;;;;5109980;27;20109;-55
2021/03/22 13:15:40;;;;;;;6.20;3.15;;;;;;;;;;5112044;27;20962;-54
2021/03/22 13:18:15;;;;;;;10.45;2.90;;;;;;;;;;5113179;27;20119;-53
2021/03/22 13:20:41;;;;;;;4.05;2.42;;;;;;;;;;5111183;27;20035;-54
2021/03/22 13:23:08;;;;;;;5.13;2.65;;;;;;;;;;5111251;27;20107;-53
2021/03/22 13:25:34;;;;;;;4.68;2.42;;;;;;;;;;5109825;27;20032;-52
2021/03/22 13:27:59;;;;;;;4.53;2.10;;;;;;;;;;5108763;27;20091;-53
2021/03/22 13:30:25;;;;;;;4.60;2.40;;;;;;;;;;5110197;27;20122;-51
2021/03/22 13:32:52;;;;;;;4.10;2.45;;;;;;;;;;5093604;28;20364;-53
2021/03/22 13:35:24;;;;;;;9.88;4.55;;;;;;;;;;5111161;27;20023;-51
2021/03/22 13:37:50;;;;;;;4.63;2.60;;;;;;;;;;5110560;27;20070;-53
2021/03/22 13:40:16;;;;;;;5.63;2.22;;;;;;;;;;5110462;27;20067;-50
2021/03/22 13:42:42;;;;;;;4.75;2.25;;;;;;;;;;5112465;27;20023;-55
2021/03/22 13:45:18;;;;;;;6.80;3.28;;;;;;;;;;5107848;27;20067;-51
2021/03/22 13:47:43;;;;;;;3.28;2.00;;;;;;;;;;5102421;28;20035;-51
2021/03/22 13:50:09;;;;;;;5.07;2.40;;;;;;;;;;5107290;27;20093;-53
2021/03/22 13:52:35;;;;;;;6.80;2.10;;;;;;;;;;5108450;27;20038;-51
2021/03/22 13:55:00;;;;;;;4.85;1.98;;;;;;;;;;5114293;27;20027;-50
2021/03/22 13:57:25;;;;;;;6.75;2.10;;;;;;;;;;5096501;28;20027;-52
2021/03/22 13:59:51;;;;;;;4.57;1.90;;;;;;;;;;5105979;27;20050;-54
2021/03/22 14:02:16;;;;;;;5.35;2.40;;;;;;;;;;5097642;28;21200;-50
2021/03/22 14:04:42;;;;;;;3.63;1.65;;;;;;;;;;5103359;27;20035;-53
2021/03/22 14:07:08;;;;;;;6.93;1.80;;;;;;;;;;5108999;27;20043;-55
2021/03/22 14:09:35;;;;;;;4.40;1.70;;;;;;;;;;5109083;27;20035;-55
2021/03/22 14:12:00;;;;;;;6.22;2.20;;;;;;;;;;5109393;27;20036;-53
2021/03/22 14:14:26;;;;;;;5.10;1.75;;;;;;;;;;5105062;28;20051;-53
2021/03/22 14:16:51;;;;;;;4.45;2.38;;;;;;;;;;5108686;27;20028;-53
2021/03/22 14:19:17;;;;;;;4.57;1.83;;;;;;;;;;5107184;27;20032;-52
2021/03/22 14:21:42;;;;;;;6.30;1.88;;;;;;;;;;5113982;27;20038;-57
2021/03/22 14:24:08;;;;;;;5.97;2.00;;;;;;;;;;5109316;27;20046;-52
2021/03/22 14:26:34;;;;;;;7.03;2.78;;;;;;;;;;5109905;27;20461;-52
2021/03/22 14:29:00;;;;;;;4.10;2.03;;;;;;;;;;5110306;27;20036;-54
2021/03/22 14:31:29;;;;;;;4.28;2.00;;;;;;;;;;5109180;28;20024;-51
2021/03/22 14:33:59;;;;;;;3.80;1.98;;;;;;;;;;5106927;27;20039;-52
2021/03/22 14:36:28;;;;;;;3.63;2.00;;;;;;;;;;5100204;28;20028;-53
2021/03/22 14:38:56;;;;;;;6.35;2.03;;;;;;;;;;5103637;27;20176;-54
2021/03/22 14:41:22;;;;;;;4.45;1.70;;;;;;;;;;5107014;28;20534;-53
2021/03/22 14:43:47;;;;;;;3.90;1.55;;;;;;;;;;5090218;28;20036;-53
2021/03/22 14:46:13;;;;;;;4.70;1.73;;;;;;;;;;5108725;27;20066;-52
2021/03/22 14:48:39;;;;;;;4.28;1.63;;;;;;;;;;5108496;28;20032;-53
2021/03/22 14:51:05;;;;;;;8.48;2.20;;;;;;;;;;5108295;28;20129;-52
2021/03/22 14:53:30;;;;;;;2.88;1.75;;;;;;;;;;5109928;28;20541;-53
2021/03/22 14:55:56;;;;;;;4.13;2.58;;;;;;;;;;5110113;28;20081;-56
2021/03/22 14:58:21;;;;;;;5.10;2.40;;;;;;;;;;5106101;28;20607;-52
2021/03/22 15:00:47;;;;;;;5.50;2.47;;;;;;;;;;5109943;28;20614;-53
2021/03/22 15:03:12;;;;;;;3.97;2.33;;;;;;;;;;5109674;28;20031;-55
2021/03/22 15:05:40;;;;;;;6.32;3.10;;;;;;;;;;5106709;28;20055;-54
2021/03/22 15:08:06;;;;;;;5.97;2.40;;;;;;;;;;5109839;28;20501;-55